Terminal Aerodrome Forecast
Issued by NWS

Home | Current Version | Previous Version | Text Only | Print | Product List | Glossary On
Versions: 1 2 3 4 5 6 7 8 9 10 11 12 13 14 15 16 17 18
000
FTUS41 KPBZ 021500 AAA
TAFBVI
TAF AMD
KBVI 021503Z 0215/0312 00000KT 4SM BR BKN025
      TEMPO 0215/0216 1SM BR BKN002
     FM021700 15003KT P6SM SCT025=

USA.gov is the U.S. government's official web portal to all federal, state and local government web resources and services.